This is the latest recevied weather packets stored in our database for station/object F5MAP-5. If no packets are shown the sender has not sent any weather packets the latest 10 day(s).
| Time | Temp. | Humidity | Pressure | Rain* | Wind** | Luminosity | Snow |
|---|---|---|---|---|---|---|---|
| 1777522352 | 7.78° C | 57% | 1022.2 hPa | 0 mm | - | 0 W/m² | - |
| 1777521154 | 8.33° C | 57% | 1021.9 hPa | 0 mm | - | 0 W/m² | - |
| 1777520553 | 8.33° C | 57% | 1022 hPa | 0 mm | - | 0 W/m² | - |
| 1777519952 | 8.33° C | 57% | 1021.9 hPa | 0 mm | - | 0 W/m² | - |
| 1777519352 | 8.33° C | 57% | 1021.9 hPa | 0 mm | - | 0 W/m² | - |
| 1777518752 | 8.33° C | 56% | 1021.8 hPa | 0 mm | - | 0 W/m² | - |
| 1777517552 | 8.89° C | 56% | 1021.7 hPa | 0 mm | - | 0 W/m² | - |
| 1777516951 | 8.89° C | 55% | 1021.5 hPa | 0 mm | - | 0 W/m² | - |
| 1777516351 | 8.89° C | 55% | 1021.6 hPa | 0 mm | - | 0 W/m² | - |
| 1777515751 | 8.89° C | 55% | 1021.5 hPa | 0 mm | - | 0 W/m² | - |
| 1777515151 | 8.89° C | 55% | 1021.4 hPa | 0 mm | - | 0 W/m² | - |
| 1777513952 | 9.44° C | 54% | 1021.4 hPa | 0 mm | - | 0 W/m² | - |
| 1777513351 | 9.44° C | 54% | 1021.3 hPa | 0 mm | - | 0 W/m² | - |
| 1777512152 | 9.44° C | 53% | 1021 hPa | 0 mm | - | 0 W/m² | - |
| 1777511552 | 9.44° C | 52% | 1021.1 hPa | 0 mm | - | 0 W/m² | - |
| 1777509752 | 10° C | 50% | 1020.8 hPa | 0 mm | - | 0 W/m² | - |
| 1777508552 | 10.56° C | 49% | 1020.8 hPa | 0 mm | - | 0 W/m² | - |
| 1777502551 | 13.33° C | 43% | 1020.7 hPa | 0 mm | - | 0 W/m² | - |
| 1777501951 | 13.89° C | 43% | 1020.6 hPa | 0 mm | - | 0 W/m² | - |
| 1777501351 | 13.89° C | 42% | 1020.6 hPa | 0 mm | - | 0 W/m² | - |
| 1777499550 | 13.89° C | 43% | 1020.5 hPa | 0 mm | - | 0 W/m² | - |
| 1777498951 | 13.89° C | 44% | 1020.3 hPa | 0 mm | - | 0 W/m² | - |
| 1777497750 | 14.44° C | 46% | 1020.2 hPa | 0 mm | - | 0 W/m² | - |
| 1777497151 | 15° C | 45% | 1020.2 hPa | 0 mm | - | 0 W/m² | - |
| 1777494750 | 16.11° C | 42% | 1019.9 hPa | 0 mm | - | 0 W/m² | - |
* Rain latest hour (hover to see other rain measurements)
** Current wind speed in m/s (hover to see current wind gust speed)